Time;durP1;ratioP1;P1;durP2;ratioP2;P2;SDS_P1;SDS_P2;PMS_P1;PMS_P2;Temp;Humidity;BMP_temperature;BMP_pressure;BME280_temperature;BME280_humidity;BME280_pressure;Samples;Min_cycle;Max_cycle;Signal;HPM_P1;HPM_P2
2021/01/19 00:00:29;;;;;;;9.43;5.80;;;7.40;99.90;;;;;;2087893;28;20025;-79
2021/01/19 00:01:29;;;;;;;14.52;5.93;;;7.40;99.90;;;;;;2081028;28;20076;-81
2021/01/19 00:02:30;;;;;;;9.45;5.88;;;7.30;99.90;;;;;;2086585;28;20211;-82
2021/01/19 00:03:31;;;;;;;16.38;6.32;;;7.40;99.90;;;;;;2081284;28;20156;-81
2021/01/19 00:04:31;;;;;;;11.25;6.00;;;7.40;99.90;;;;;;2080935;28;20059;-85
2021/01/19 00:05:32;;;;;;;7.47;5.43;;;7.40;99.90;;;;;;2091138;28;20036;-84
2021/01/19 00:06:32;;;;;;;11.38;5.68;;;7.30;99.90;;;;;;2089245;28;20060;-85
2021/01/19 00:07:33;;;;;;;10.45;6.57;;;7.40;99.90;;;;;;2089356;28;20029;-81
2021/01/19 00:08:34;;;;;;;13.07;6.72;;;7.40;99.90;;;;;;2082539;28;20039;-85
2021/01/19 00:09:34;;;;;;;9.60;5.72;;;7.40;99.90;;;;;;2084678;28;20032;-81
2021/01/19 00:10:35;;;;;;;12.68;6.45;;;7.40;99.90;;;;;;2081163;28;20017;-80
2021/01/19 00:11:36;;;;;;;11.85;6.20;;;7.40;99.90;;;;;;2088937;28;20085;-79
2021/01/19 00:12:36;;;;;;;9.75;6.18;;;7.30;99.90;;;;;;2087416;28;20029;-81
2021/01/19 00:13:37;;;;;;;13.38;6.25;;;7.40;99.90;;;;;;2088966;28;20621;-81
2021/01/19 00:14:38;;;;;;;10.30;6.35;;;7.30;99.90;;;;;;2097069;28;20032;-80
2021/01/19 00:15:39;;;;;;;11.65;6.35;;;7.30;99.90;;;;;;2090212;28;20025;-81
2021/01/19 00:16:39;;;;;;;12.65;7.03;;;7.40;99.90;;;;;;2090367;28;20021;-82
2021/01/19 00:17:41;;;;;;;13.35;6.93;;;7.40;99.90;;;;;;2086894;28;20013;-82
2021/01/19 00:18:41;;;;;;;16.65;7.30;;;7.40;99.90;;;;;;2087391;28;20043;-81
2021/01/19 00:19:42;;;;;;;12.63;6.75;;;7.30;99.90;;;;;;2088568;28;20462;-81
2021/01/19 00:20:43;;;;;;;14.80;8.15;;;7.30;99.90;;;;;;2088456;28;20078;-81
2021/01/19 00:21:44;;;;;;;19.83;7.65;;;7.40;99.90;;;;;;2084373;28;20025;-81
2021/01/19 00:22:44;;;;;;;16.13;6.88;;;7.30;99.90;;;;;;2080182;28;20121;-80
2021/01/19 00:23:45;;;;;;;12.32;6.85;;;7.40;99.90;;;;;;2084106;28;20028;-81
2021/01/19 00:24:46;;;;;;;13.65;7.50;;;7.40;99.90;;;;;;2080199;28;20022;-81
2021/01/19 00:25:46;;;;;;;14.23;7.20;;;7.40;99.90;;;;;;2083584;28;20035;-80
2021/01/19 00:26:47;;;;;;;14.85;7.70;;;7.40;99.90;;;;;;2087710;28;20017;-83
2021/01/19 00:27:47;;;;;;;15.02;8.00;;;7.40;99.90;;;;;;2091961;28;20013;-82
2021/01/19 00:28:48;;;;;;;14.13;7.90;;;7.40;99.90;;;;;;2084358;28;20017;-82
2021/01/19 00:29:49;;;;;;;15.15;7.68;;;7.30;99.90;;;;;;2090350;28;20029;-82
2021/01/19 00:30:50;;;;;;;13.77;7.10;;;7.40;99.90;;;;;;2087893;28;20104;-82
2021/01/19 00:31:50;;;;;;;13.77;6.88;;;7.30;99.90;;;;;;2090649;28;20074;-82
2021/01/19 00:32:51;;;;;;;15.00;7.47;;;7.30;99.90;;;;;;2083584;28;20032;-81
2021/01/19 00:33:51;;;;;;;16.80;7.20;;;7.30;99.90;;;;;;2083646;28;20026;-82
2021/01/19 00:34:52;;;;;;;14.65;7.28;;;7.30;99.90;;;;;;2084467;28;20419;-82
2021/01/19 00:35:53;;;;;;;13.70;7.35;;;7.40;99.90;;;;;;2086068;28;20489;-81
2021/01/19 00:36:53;;;;;;;17.23;6.80;;;7.40;99.90;;;;;;2087610;28;20115;-82
2021/01/19 00:37:56;;;;;;;14.43;6.65;;;7.40;99.90;;;;;;2088362;28;20028;-81
2021/01/19 00:38:56;;;;;;;16.35;7.07;;;7.30;99.90;;;;;;2089584;28;20474;-83
2021/01/19 00:39:57;;;;;;;15.48;7.35;;;7.30;99.90;;;;;;2089128;28;20032;-80
2021/01/19 00:40:57;;;;;;;21.77;7.35;;;7.30;99.90;;;;;;2083005;28;20540;-80
2021/01/19 00:41:58;;;;;;;18.10;6.50;;;7.30;99.90;;;;;;2097500;28;20025;-83
2021/01/19 00:42:59;;;;;;;13.35;6.78;;;7.30;99.90;;;;;;2088477;28;20037;-82
2021/01/19 00:44:00;;;;;;;9.30;5.82;;;7.30;99.90;;;;;;2087256;28;20036;-83
2021/01/19 00:45:00;;;;;;;11.98;6.22;;;7.30;99.90;;;;;;2089664;28;20051;-83
2021/01/19 00:46:01;;;;;;;14.90;6.50;;;7.30;99.90;;;;;;2080896;28;20053;-82
2021/01/19 00:47:02;;;;;;;13.85;6.38;;;7.30;99.90;;;;;;2084680;28;20033;-83
2021/01/19 00:48:03;;;;;;;15.45;8.27;;;7.30;99.90;;;;;;2088500;28;20100;-85
2021/01/19 00:49:03;;;;;;;13.98;6.97;;;7.30;99.90;;;;;;2087190;28;20037;-84
2021/01/19 00:50:06;;;;;;;14.70;7.55;;;7.30;99.90;;;;;;2081514;28;20385;-84
2021/01/19 00:51:07;;;;;;;13.68;6.95;;;7.30;99.90;;;;;;2088539;28;20486;-84
2021/01/19 00:52:07;;;;;;;14.52;7.43;;;7.30;99.90;;;;;;2080383;28;20026;-84
2021/01/19 00:53:08;;;;;;;10.73;6.70;;;7.30;99.90;;;;;;2080872;28;20018;-83
2021/01/19 00:54:09;;;;;;;14.88;6.60;;;7.30;99.90;;;;;;2082474;28;20664;-84
2021/01/19 00:55:12;;;;;;;16.00;7.30;;;7.30;99.90;;;;;;2080878;28;20425;-83
2021/01/19 00:56:12;;;;;;;18.85;7.40;;;7.30;99.90;;;;;;2088960;28;20405;-82
2021/01/19 00:57:13;;;;;;;12.68;6.55;;;7.30;99.90;;;;;;2084149;28;20029;-83
2021/01/19 00:58:14;;;;;;;16.02;6.97;;;7.40;99.90;;;;;;2088726;28;20497;-83
2021/01/19 00:59:14;;;;;;;16.85;6.18;;;7.30;99.90;;;;;;2087940;28;20021;-82
2021/01/19 01:00:16;;;;;;;14.05;6.28;;;7.30;99.90;;;;;;2097548;28;20021;-81
2021/01/19 01:01:17;;;;;;;12.10;5.75;;;7.30;99.90;;;;;;2097425;28;20070;-83
2021/01/19 01:02:18;;;;;;;15.23;6.15;;;7.30;99.90;;;;;;2091401;28;20033;-83
2021/01/19 01:03:18;;;;;;;17.52;7.00;;;7.40;99.90;;;;;;2080699;28;20127;-83
2021/01/19 01:04:19;;;;;;;14.90;6.25;;;7.40;99.90;;;;;;2088047;28;20033;-83
2021/01/19 01:05:20;;;;;;;17.55;6.20;;;7.30;99.90;;;;;;2084417;28;20028;-84
2021/01/19 01:06:20;;;;;;;13.80;6.32;;;7.30;99.90;;;;;;2089777;28;20528;-84
2021/01/19 01:07:21;;;;;;;14.23;5.78;;;7.40;99.90;;;;;;2080197;28;20030;-81
2021/01/19 01:08:22;;;;;;;16.55;5.53;;;7.30;99.90;;;;;;2082905;28;20034;-83
2021/01/19 01:09:23;;;;;;;11.95;6.65;;;7.30;99.90;;;;;;2087579;28;20155;-84
2021/01/19 01:10:23;;;;;;;13.25;5.93;;;7.30;99.90;;;;;;2088692;28;20072;-83
2021/01/19 01:11:24;;;;;;;19.02;6.65;;;7.30;99.90;;;;;;2080839;28;20036;-84
2021/01/19 01:12:24;;;;;;;14.93;6.82;;;7.30;99.90;;;;;;2079847;28;20025;-85
2021/01/19 01:13:25;;;;;;;14.02;5.47;;;7.30;99.90;;;;;;2081137;28;20052;-83
2021/01/19 01:14:25;;;;;;;14.13;6.68;;;7.30;99.90;;;;;;2080022;28;20116;-85
2021/01/19 01:15:34;;;;;;;18.08;6.38;;;7.30;99.90;;;;;;2088633;28;20104;-82
2021/01/19 01:16:36;;;;;;;15.45;6.53;;;7.30;99.90;;;;;;2081636;28;20026;-84
2021/01/19 01:17:40;;;;;;;17.33;6.43;;;7.30;99.90;;;;;;2088422;28;20495;-85
2021/01/19 01:18:41;;;;;;;11.95;5.78;;;7.30;99.90;;;;;;2088383;28;20028;-86
2021/01/19 01:19:41;;;;;;;15.77;5.95;;;7.30;99.90;;;;;;2088692;28;20021;-84
2021/01/19 01:20:43;;;;;;;12.15;5.80;;;7.30;99.90;;;;;;2088661;28;20074;-82
2021/01/19 01:21:43;;;;;;;12.77;5.45;;;7.30;99.90;;;;;;2092911;28;20025;-85
2021/01/19 01:22:44;;;;;;;20.80;6.45;;;7.30;99.90;;;;;;2097899;28;20425;-83
2021/01/19 01:23:45;;;;;;;13.55;5.40;;;7.30;99.90;;;;;;2103845;28;20410;-85
2021/01/19 01:24:46;;;;;;;13.95;5.57;;;7.30;99.90;;;;;;2099655;28;20044;-85
2021/01/19 01:25:46;;;;;;;12.85;5.90;;;7.30;99.90;;;;;;2091375;28;20024;-82
2021/01/19 01:26:51;;;;;;;14.15;5.82;;;7.30;99.90;;;;;;2091897;28;20397;-84
2021/01/19 01:27:52;;;;;;;13.00;5.65;;;7.30;99.90;;;;;;2082878;28;20564;-82
2021/01/19 01:28:53;;;;;;;9.75;4.93;;;7.30;99.90;;;;;;2082854;28;20032;-83
2021/01/19 01:29:53;;;;;;;13.30;4.75;;;7.30;99.90;;;;;;2082138;28;20059;-82
2021/01/19 01:30:54;;;;;;;13.43;5.22;;;7.30;99.90;;;;;;2082937;28;20017;-81
2021/01/19 01:31:54;;;;;;;13.23;5.38;;;7.30;99.90;;;;;;2088046;28;20021;-83
2021/01/19 01:32:55;;;;;;;15.15;5.95;;;7.30;99.90;;;;;;2091206;28;20473;-84
2021/01/19 01:33:56;;;;;;;12.93;5.30;;;7.30;99.90;;;;;;2100135;28;20424;-83
2021/01/19 01:34:57;;;;;;;17.90;5.07;;;7.30;99.90;;;;;;2092168;28;20490;-84
2021/01/19 01:35:58;;;;;;;11.98;4.70;;;7.30;99.90;;;;;;2083003;28;20017;-84
2021/01/19 01:36:58;;;;;;;10.70;4.72;;;7.30;99.90;;;;;;2090132;28;20053;-84
2021/01/19 01:37:59;;;;;;;13.27;5.15;;;7.30;99.90;;;;;;2087981;28;20082;-79
2021/01/19 01:39:00;;;;;;;10.02;4.30;;;7.30;99.90;;;;;;2098600;28;20029;-83
2021/01/19 01:40:00;;;;;;;16.45;4.88;;;7.30;99.90;;;;;;2082644;28;20033;-84
2021/01/19 01:41:01;;;;;;;11.90;5.13;;;7.30;99.90;;;;;;2091339;28;20054;-84
2021/01/19 01:42:02;;;;;;;13.38;4.30;;;7.30;99.90;;;;;;2083239;28;20036;-84
2021/01/19 01:43:11;;;;;;;9.10;4.15;;;7.30;99.90;;;;;;2091870;28;20033;-84
2021/01/19 01:44:12;;;;;;;11.25;4.93;;;7.30;99.90;;;;;;2094687;28;20021;-84
2021/01/19 01:45:18;;;;;;;9.43;4.10;;;7.30;99.90;;;;;;2099488;28;20288;-83
2021/01/19 01:46:18;;;;;;;14.55;4.95;;;7.30;99.90;;;;;;2084680;28;20030;-86
2021/01/19 01:47:25;;;;;;;13.05;5.03;;;7.30;99.90;;;;;;2084554;28;20081;-84
2021/01/19 01:48:25;;;;;;;10.00;4.50;;;7.30;99.90;;;;;;2091918;28;20480;-84
2021/01/19 01:49:26;;;;;;;9.95;4.85;;;7.30;99.90;;;;;;2091275;28;20033;-82
2021/01/19 01:50:27;;;;;;;9.82;4.30;;;7.30;99.90;;;;;;2099180;28;20115;-85
2021/01/19 01:51:28;;;;;;;13.00;4.93;;;7.30;99.90;;;;;;2091436;28;20104;-85
2021/01/19 01:52:29;;;;;;;13.60;4.60;;;7.30;99.90;;;;;;2095004;28;20020;-84
2021/01/19 01:53:30;;;;;;;7.15;4.10;;;7.30;99.90;;;;;;2090934;28;20397;-83
2021/01/19 01:54:31;;;;;;;8.30;4.05;;;7.30;99.90;;;;;;2085954;28;20048;-86
2021/01/19 01:55:34;;;;;;;7.60;4.05;;;7.30;99.90;;;;;;2088829;28;20022;-84
2021/01/19 01:56:34;;;;;;;9.05;4.10;;;7.30;99.90;;;;;;2084263;28;20506;-84
2021/01/19 01:57:38;;;;;;;10.90;3.78;;;7.30;99.90;;;;;;2082801;28;20018;-83
2021/01/19 01:58:39;;;;;;;9.75;3.80;;;7.30;99.90;;;;;;2085451;28;20058;-80
2021/01/19 01:59:40;;;;;;;9.25;3.80;;;7.30;99.90;;;;;;2090857;28;20028;-82
2021/01/19 02:00:41;;;;;;;8.68;3.75;;;7.30;99.90;;;;;;2090905;28;20021;-85
2021/01/19 02:01:41;;;;;;;13.05;4.95;;;7.30;99.90;;;;;;2091079;28;20031;-84
2021/01/19 02:02:52;;;;;;;9.30;3.85;;;7.30;99.90;;;;;;2091868;28;20025;-83
2021/01/19 02:03:53;;;;;;;13.32;3.45;;;7.30;99.90;;;;;;2091176;28;20032;-84
2021/01/19 02:04:54;;;;;;;10.57;3.63;;;7.30;99.90;;;;;;2082595;28;20205;-83
2021/01/19 02:05:55;;;;;;;10.77;3.63;;;7.30;99.90;;;;;;2090585;28;20071;-85
2021/01/19 02:06:56;;;;;;;9.27;2.97;;;7.30;99.90;;;;;;2085543;28;20021;-80
2021/01/19 02:08:05;;;;;;;6.53;3.20;;;7.30;99.90;;;;;;2082833;28;20022;-84
2021/01/19 02:09:17;;;;;;;10.38;3.50;;;7.30;99.90;;;;;;2084138;28;20046;-84
2021/01/19 02:10:44;;;;;;;11.73;3.58;;;7.30;99.90;;;;;;2083934;28;20030;-86
2021/01/19 02:12:00;;;;;;;8.68;3.08;;;7.30;99.90;;;;;;2089490;28;20025;-84
2021/01/19 02:13:18;;;;;;;11.93;4.43;;;7.20;99.90;;;;;;2091336;28;20155;-85
2021/01/19 02:14:40;;;;;;;8.05;3.00;;;7.20;99.90;;;;;;2085166;28;20049;-84
2021/01/19 02:15:47;;;;;;;8.30;2.90;;;7.20;99.90;;;;;;2093536;28;20104;-82
2021/01/19 02:16:56;;;;;;;9.40;2.85;;;7.20;99.90;;;;;;2099824;28;20154;-83
2021/01/19 02:18:25;;;;;;;9.87;2.90;;;7.10;99.90;;;;;;2089809;28;20025;-86
2021/01/19 02:19:59;;;;;;;8.57;3.03;;;7.20;99.90;;;;;;2096527;28;20802;-85
2021/01/19 02:21:18;;;;;;;10.90;3.10;;;7.20;99.90;;;;;;2086057;28;20101;-83
2021/01/19 02:22:52;;;;;;;8.55;2.60;;;7.10;99.90;;;;;;2085913;28;20022;-85
2021/01/19 02:24:08;;;;;;;5.43;2.78;;;7.10;99.90;;;;;;2095387;28;20032;-87
2021/01/19 02:25:11;;;;;;;7.93;3.05;;;7.10;99.90;;;;;;2106284;28;20044;-84
2021/01/19 02:27:04;;;;;;;8.98;2.60;;;7.10;99.90;;;;;;2107679;28;20023;-84
2021/01/19 02:28:20;;;;;;;6.45;2.30;;;7.00;99.90;;;;;;2092913;28;20045;-83
2021/01/19 02:29:42;;;;;;;8.55;2.60;;;7.10;99.90;;;;;;2083683;28;20675;-84
2021/01/19 02:30:52;;;;;;;5.75;2.33;;;7.10;99.90;;;;;;2092366;28;20403;-86
2021/01/19 02:32:50;;;;;;;8.70;2.97;;;7.00;99.90;;;;;;2090385;28;20519;-86
2021/01/19 02:34:16;;;;;;;8.38;2.47;;;7.00;99.90;;;;;;2088152;28;20039;-85
2021/01/19 02:35:24;;;;;;;5.47;2.10;;;7.00;99.90;;;;;;2056302;28;20480;-83
2021/01/19 02:36:45;;;;;;;10.88;2.97;;;7.00;99.90;;;;;;2096153;28;20484;-81
2021/01/19 02:37:49;;;;;;;11.57;3.45;;;7.00;99.90;;;;;;2092512;28;20055;-83
2021/01/19 02:38:57;;;;;;;6.55;2.95;;;7.00;99.90;;;;;;2080930;28;20478;-83
2021/01/19 02:40:05;;;;;;;10.90;3.30;;;7.00;99.90;;;;;;2096503;28;20024;-83
2021/01/19 02:41:07;;;;;;;8.40;3.10;;;7.10;99.90;;;;;;2094412;28;20072;-82
2021/01/19 02:42:10;;;;;;;8.23;2.75;;;7.10;99.90;;;;;;2091623;28;20112;-79
2021/01/19 02:43:23;;;;;;;11.57;3.33;;;7.00;99.90;;;;;;2099725;28;20040;-83
2021/01/19 02:44:31;;;;;;;5.05;2.55;;;7.10;99.90;;;;;;2092417;28;20033;-79
2021/01/19 02:45:32;;;;;;;8.85;3.45;;;7.10;99.90;;;;;;2092657;28;20124;-84
2021/01/19 02:46:33;;;;;;;10.70;3.17;;;7.10;99.90;;;;;;2082838;28;20548;-82
2021/01/19 02:47:34;;;;;;;7.20;2.47;;;7.20;99.90;;;;;;2082056;28;20025;-82
2021/01/19 02:48:34;;;;;;;9.07;3.25;;;7.10;99.90;;;;;;2088543;28;20080;-84
2021/01/19 02:49:35;;;;;;;5.13;3.15;;;7.10;99.90;;;;;;2087155;28;20584;-82
2021/01/19 02:50:35;;;;;;;6.25;2.72;;;7.20;99.90;;;;;;2088569;28;20025;-82
2021/01/19 02:51:36;;;;;;;8.02;2.47;;;7.10;99.90;;;;;;2096876;28;20115;-84
2021/01/19 02:52:38;;;;;;;7.53;2.85;;;7.20;99.90;;;;;;2085355;28;20025;-82
2021/01/19 02:53:39;;;;;;;10.55;3.30;;;7.10;99.90;;;;;;2081709;28;20024;-84
2021/01/19 02:54:43;;;;;;;8.25;2.85;;;7.20;99.90;;;;;;2091912;28;20369;-82
2021/01/19 02:55:45;;;;;;;6.18;2.63;;;7.20;99.90;;;;;;2095221;28;20071;-85
2021/01/19 02:57:04;;;;;;;8.05;2.83;;;7.20;99.90;;;;;;2091869;28;20035;-85
2021/01/19 02:58:28;;;;;;;6.47;2.50;;;7.20;99.90;;;;;;2085142;28;20457;-79
2021/01/19 02:59:44;;;;;;;6.07;2.50;;;7.20;99.90;;;;;;2092084;28;20020;-84
2021/01/19 03:00:55;;;;;;;6.63;2.42;;;7.10;99.90;;;;;;2091310;28;20049;-84
2021/01/19 03:02:04;;;;;;;9.45;2.70;;;7.10;99.90;;;;;;2092272;28;20036;-84
2021/01/19 03:03:08;;;;;;;6.50;2.13;;;7.10;99.90;;;;;;2084604;28;20029;-84
2021/01/19 03:04:11;;;;;;;9.50;2.50;;;7.10;99.90;;;;;;2082863;28;20018;-84
2021/01/19 03:05:15;;;;;;;6.43;2.70;;;7.10;99.90;;;;;;2091651;28;20025;-84
2021/01/19 03:06:18;;;;;;;10.15;2.55;;;7.10;99.90;;;;;;2098617;28;20035;-82
2021/01/19 03:07:23;;;;;;;6.43;2.25;;;7.10;99.90;;;;;;2101566;28;20086;-85
2021/01/19 03:08:27;;;;;;;6.13;1.88;;;7.10;99.90;;;;;;2097253;28;20078;-85
2021/01/19 03:09:29;;;;;;;7.00;2.13;;;7.10;99.90;;;;;;2085095;28;20072;-82
2021/01/19 03:10:32;;;;;;;5.50;2.00;;;7.10;99.90;;;;;;2084330;28;20071;-86
2021/01/19 03:11:37;;;;;;;7.95;2.92;;;7.10;99.90;;;;;;2083114;28;20029;-85
2021/01/19 03:12:41;;;;;;;4.13;1.80;;;7.10;99.90;;;;;;2083441;28;20040;-85
2021/01/19 03:13:48;;;;;;;9.48;2.58;;;7.10;99.90;;;;;;2090372;28;20394;-87
2021/01/19 03:14:49;;;;;;;5.75;1.88;;;7.10;99.90;;;;;;2085596;28;20041;-86
2021/01/19 03:16:07;;;;;;;7.30;2.30;;;7.10;99.90;;;;;;2090344;28;20025;-86
2021/01/19 03:17:09;;;;;;;6.97;2.10;;;7.10;99.90;;;;;;2085299;28;20021;-86
2021/01/19 03:18:10;;;;;;;5.63;1.92;;;7.10;99.90;;;;;;2082639;28;20049;-85
2021/01/19 03:19:11;;;;;;;5.50;2.40;;;7.10;99.90;;;;;;2082781;28;20170;-86
2021/01/19 03:20:14;;;;;;;5.03;2.10;;;7.10;99.90;;;;;;2099217;28;20025;-85
2021/01/19 03:21:15;;;;;;;4.35;1.75;;;7.10;99.90;;;;;;2084135;28;20029;-85
2021/01/19 03:22:16;;;;;;;6.57;2.00;;;7.20;99.90;;;;;;2083552;28;20520;-85
2021/01/19 03:23:16;;;;;;;4.25;2.10;;;7.10;99.90;;;;;;2091406;28;20028;-82
2021/01/19 03:24:17;;;;;;;9.35;2.10;;;7.20;99.90;;;;;;2091075;28;20079;-84
2021/01/19 03:25:18;;;;;;;4.28;1.58;;;7.20;99.90;;;;;;2082733;28;20029;-85
2021/01/19 03:26:19;;;;;;;3.33;1.88;;;7.20;99.90;;;;;;2085316;28;20116;-83
2021/01/19 03:27:20;;;;;;;4.97;2.05;;;7.10;99.90;;;;;;2089540;28;20076;-85
2021/01/19 03:28:21;;;;;;;3.88;1.90;;;7.10;99.90;;;;;;2090033;28;20410;-82
2021/01/19 03:29:21;;;;;;;5.90;1.67;;;7.10;99.90;;;;;;2089583;28;20033;-85
2021/01/19 03:30:22;;;;;;;6.20;1.75;;;7.10;99.90;;;;;;2089880;28;20119;-86
2021/01/19 03:31:23;;;;;;;6.93;2.20;;;7.10;99.90;;;;;;2082070;28;20033;-84
2021/01/19 03:32:24;;;;;;;7.65;2.30;;;7.10;99.90;;;;;;2081972;28;20022;-85
2021/01/19 03:33:24;;;;;;;4.28;2.03;;;7.10;99.90;;;;;;2089237;28;20033;-83
2021/01/19 03:34:25;;;;;;;5.75;1.73;;;7.10;99.90;;;;;;2095112;28;20227;-84
2021/01/19 03:35:26;;;;;;;3.58;2.15;;;7.10;99.90;;;;;;2097244;28;20451;-85
2021/01/19 03:36:26;;;;;;;6.25;2.15;;;7.10;99.90;;;;;;2088103;28;20032;-85
2021/01/19 03:37:27;;;;;;;4.93;1.70;;;7.10;99.90;;;;;;2089719;28;20020;-85
2021/01/19 03:38:28;;;;;;;7.00;1.80;;;7.10;99.90;;;;;;2089610;28;20020;-84
2021/01/19 03:39:29;;;;;;;6.18;2.33;;;7.10;99.90;;;;;;2085383;28;20026;-84
2021/01/19 03:40:30;;;;;;;4.05;1.65;;;7.10;99.90;;;;;;2081093;28;20072;-83
2021/01/19 03:41:31;;;;;;;8.98;3.28;;;7.10;99.90;;;;;;2096408;28;20074;-85
2021/01/19 03:42:32;;;;;;;4.07;2.03;;;7.10;99.90;;;;;;2094799;28;20452;-84
2021/01/19 03:43:32;;;;;;;5.65;2.38;;;7.00;99.90;;;;;;2089287;28;20027;-84
2021/01/19 03:44:33;;;;;;;6.57;2.22;;;7.00;99.90;;;;;;2095492;28;20416;-84
2021/01/19 03:45:34;;;;;;;9.05;2.40;;;7.00;99.90;;;;;;2087997;28;20025;-82
2021/01/19 03:46:35;;;;;;;7.03;2.00;;;7.10;99.90;;;;;;2080748;28;20025;-86
2021/01/19 03:47:36;;;;;;;5.10;2.05;;;7.00;99.90;;;;;;2083106;28;20656;-85
2021/01/19 03:48:36;;;;;;;5.68;1.90;;;7.00;99.90;;;;;;2082689;28;20026;-86
2021/01/19 03:49:37;;;;;;;8.02;2.63;;;7.00;99.90;;;;;;2091253;28;20021;-84
2021/01/19 03:50:38;;;;;;;6.32;2.22;;;7.00;99.90;;;;;;2096781;28;20064;-84
2021/01/19 03:51:38;;;;;;;6.22;2.10;;;7.00;99.90;;;;;;2083185;28;20079;-85
2021/01/19 03:52:39;;;;;;;7.18;2.08;;;7.00;99.90;;;;;;2095322;28;20047;-83
2021/01/19 03:53:39;;;;;;;4.47;1.92;;;7.00;99.90;;;;;;2092461;28;20005;-85
2021/01/19 03:54:44;;;;;;;5.43;2.45;;;7.00;99.90;;;;;;2092342;28;20025;-84
2021/01/19 03:55:45;;;;;;;8.02;2.13;;;7.00;99.90;;;;;;2089357;28;20055;-86
2021/01/19 03:56:47;;;;;;;7.85;2.10;;;7.00;99.90;;;;;;2091573;28;20025;-83
2021/01/19 03:57:47;;;;;;;9.27;2.30;;;7.00;99.90;;;;;;2084880;28;20151;-83
2021/01/19 03:58:48;;;;;;;4.95;2.60;;;6.90;99.90;;;;;;2085976;28;20048;-84
2021/01/19 03:59:49;;;;;;;7.55;2.25;;;7.00;99.90;;;;;;2085718;28;20021;-85
2021/01/19 04:00:49;;;;;;;8.55;2.03;;;7.00;99.90;;;;;;2092828;28;20028;-85
2021/01/19 04:01:50;;;;;;;5.78;2.17;;;7.00;99.90;;;;;;2097858;28;20027;-84
2021/01/19 04:02:51;;;;;;;9.30;2.25;;;7.00;99.90;;;;;;2089774;28;20480;-83
2021/01/19 04:03:52;;;;;;;7.05;2.17;;;7.00;99.90;;;;;;2095682;28;20040;-85
2021/01/19 04:04:53;;;;;;;7.68;2.63;;;7.00;99.90;;;;;;2091151;28;20051;-83
2021/01/19 04:05:53;;;;;;;6.75;2.83;;;7.00;99.90;;;;;;2091227;28;20029;-85
2021/01/19 04:06:54;;;;;;;9.85;2.50;;;7.00;99.90;;;;;;2082737;28;20099;-85
2021/01/19 04:07:55;;;;;;;6.63;2.00;;;7.00;99.90;;;;;;2082675;28;20205;-85
2021/01/19 04:08:55;;;;;;;9.20;2.67;;;7.00;99.90;;;;;;2090857;28;20382;-83
2021/01/19 04:09:56;;;;;;;6.32;2.20;;;7.00;99.90;;;;;;2098802;28;20021;-85
2021/01/19 04:10:56;;;;;;;5.38;2.38;;;7.00;99.90;;;;;;2097887;28;20025;-86
2021/01/19 04:11:57;;;;;;;5.68;2.15;;;7.00;99.90;;;;;;2093665;28;20094;-86
2021/01/19 04:12:58;;;;;;;5.72;2.47;;;7.00;99.90;;;;;;2080961;28;20118;-84
2021/01/19 04:13:58;;;;;;;7.28;2.30;;;7.00;99.90;;;;;;2096850;28;20461;-86
2021/01/19 04:14:59;;;;;;;9.05;2.42;;;7.00;99.90;;;;;;2090390;28;20033;-85
2021/01/19 04:16:00;;;;;;;6.15;2.00;;;7.00;99.90;;;;;;2090151;28;20035;-84
2021/01/19 04:17:00;;;;;;;6.97;2.05;;;7.00;99.90;;;;;;2080113;28;20116;-83
2021/01/19 04:18:01;;;;;;;6.65;1.70;;;7.00;99.90;;;;;;2081357;28;20056;-85
2021/01/19 04:19:02;;;;;;;6.18;2.00;;;7.00;99.90;;;;;;2092092;28;20481;-84
2021/01/19 04:20:04;;;;;;;8.00;2.65;;;7.00;99.90;;;;;;2083695;28;20030;-82
2021/01/19 04:21:05;;;;;;;8.85;2.13;;;7.00;99.90;;;;;;2091489;28;20039;-83
2021/01/19 04:22:05;;;;;;;7.03;2.08;;;7.00;99.90;;;;;;2090507;28;20496;-83
2021/01/19 04:23:06;;;;;;;8.35;2.30;;;7.00;99.90;;;;;;2083826;28;20516;-86
2021/01/19 04:24:07;;;;;;;5.43;2.55;;;7.00;99.90;;;;;;2082515;28;20032;-85
2021/01/19 04:25:08;;;;;;;8.25;2.30;;;7.00;99.90;;;;;;2084257;28;20021;-81
2021/01/19 04:26:09;;;;;;;9.43;2.55;;;7.00;99.90;;;;;;2090570;28;20025;-84
2021/01/19 04:27:15;;;;;;;6.00;2.08;;;7.00;99.90;;;;;;2082488;28;20025;-82
2021/01/19 04:28:17;;;;;;;8.32;2.00;;;7.00;99.90;;;;;;2083519;28;20053;-83
2021/01/19 04:29:18;;;;;;;6.40;2.40;;;7.00;99.90;;;;;;2080680;28;20113;-83
2021/01/19 04:30:19;;;;;;;5.35;2.05;;;7.00;99.90;;;;;;2096371;28;20029;-82
2021/01/19 04:31:20;;;;;;;7.38;2.00;;;7.10;99.90;;;;;;2093670;28;20112;-83
2021/01/19 04:32:20;;;;;;;5.53;1.95;;;7.10;99.90;;;;;;2080427;28;20482;-84
2021/01/19 04:33:21;;;;;;;5.15;2.00;;;7.00;99.90;;;;;;2088760;28;20104;-85
2021/01/19 04:34:22;;;;;;;6.85;2.55;;;7.10;99.90;;;;;;2090301;28;20027;-84
2021/01/19 04:35:22;;;;;;;9.77;2.60;;;7.10;99.90;;;;;;2088797;28;20029;-82
2021/01/19 04:36:23;;;;;;;5.07;2.08;;;7.00;99.90;;;;;;2093029;28;20021;-83
2021/01/19 04:37:23;;;;;;;6.28;1.90;;;7.10;99.90;;;;;;2088186;28;20471;-83
2021/01/19 04:38:24;;;;;;;5.65;1.85;;;7.10;99.90;;;;;;2080581;28;20028;-83
2021/01/19 04:39:25;;;;;;;8.70;2.30;;;7.10;99.90;;;;;;2088321;28;20028;-82
2021/01/19 04:40:26;;;;;;;6.47;1.77;;;7.10;99.90;;;;;;2088447;28;20052;-83
2021/01/19 04:41:27;;;;;;;7.28;2.10;;;7.10;99.90;;;;;;2087757;28;20025;-82
2021/01/19 04:42:32;;;;;;;4.85;2.45;;;7.10;99.90;;;;;;2089793;28;20040;-83
2021/01/19 04:43:32;;;;;;;9.35;2.65;;;7.10;99.90;;;;;;2089428;28;20225;-83
2021/01/19 04:44:34;;;;;;;10.75;3.03;;;7.10;99.90;;;;;;2087852;28;20029;-84
2021/01/19 04:45:35;;;;;;;9.07;3.15;;;7.10;99.90;;;;;;2087928;28;20104;-82
2021/01/19 04:46:36;;;;;;;12.52;2.30;;;7.10;99.90;;;;;;2087361;28;20067;-83
2021/01/19 04:47:38;;;;;;;7.82;2.28;;;7.10;99.90;;;;;;2089532;28;20017;-83
2021/01/19 04:48:42;;;;;;;7.72;2.03;;;7.10;99.90;;;;;;2088197;28;20055;-82
2021/01/19 04:49:44;;;;;;;6.00;2.50;;;7.10;99.90;;;;;;2088884;28;20025;-82
2021/01/19 04:50:45;;;;;;;7.00;2.22;;;7.10;99.90;;;;;;2079921;28;20038;-83
2021/01/19 04:51:47;;;;;;;6.78;1.90;;;7.10;99.90;;;;;;2080355;28;20021;-83
2021/01/19 04:52:50;;;;;;;8.45;2.13;;;7.00;99.90;;;;;;2080559;28;20021;-81
2021/01/19 04:54:08;;;;;;;9.35;2.55;;;7.00;99.90;;;;;;2081861;28;20485;-82
2021/01/19 04:55:48;;;;;;;6.78;1.90;;;7.00;99.90;;;;;;2091943;28;20044;-81
2021/01/19 04:56:57;;;;;;;8.65;2.10;;;6.90;99.90;;;;;;2088367;28;20067;-82
2021/01/19 04:58:01;;;;;;;9.23;3.08;;;6.90;99.90;;;;;;2093007;28;20029;-82
2021/01/19 04:59:12;;;;;;;6.10;1.88;;;6.90;99.90;;;;;;2092002;28;20473;-82
2021/01/19 05:00:15;;;;;;;9.00;2.97;;;6.90;99.90;;;;;;2090705;28;20119;-81
2021/01/19 05:01:37;;;;;;;8.55;2.45;;;6.90;99.90;;;;;;2082199;28;20080;-83
2021/01/19 05:02:42;;;;;;;8.07;2.55;;;6.90;99.90;;;;;;2092020;28;20380;-82
2021/01/19 05:03:57;;;;;;;8.55;2.47;;;6.90;99.90;;;;;;2093980;28;20136;-81
2021/01/19 05:05:31;;;;;;;7.32;2.65;;;6.90;99.90;;;;;;2089661;28;20162;-81
2021/01/19 05:06:41;;;;;;;12.80;3.15;;;6.90;99.90;;;;;;2094075;28;20465;-82
2021/01/19 05:08:07;;;;;;;9.27;3.63;;;6.80;99.90;;;;;;2098747;28;20465;-81
2021/01/19 05:09:19;;;;;;;12.65;2.90;;;6.90;99.90;;;;;;2089444;28;20101;-81
2021/01/19 05:11:09;;;;;;;8.55;2.40;;;6.80;99.90;;;;;;2083757;28;20486;-82
2021/01/19 05:12:18;;;;;;;7.47;2.70;;;6.80;99.90;;;;;;2089276;28;20185;-82
2021/01/19 05:13:34;;;;;;;7.80;2.42;;;6.80;99.90;;;;;;2093740;28;20033;-81
2021/01/19 05:14:39;;;;;;;8.52;2.75;;;6.80;99.90;;;;;;2093841;28;20047;-83
2021/01/19 05:15:43;;;;;;;10.05;2.72;;;6.80;99.90;;;;;;2091328;28;20039;-84
2021/01/19 05:16:44;;;;;;;6.20;2.20;;;6.80;99.90;;;;;;2095044;28;20017;-82
2021/01/19 05:17:45;;;;;;;9.43;2.55;;;6.80;99.90;;;;;;2106626;28;20035;-81
2021/01/19 05:18:50;;;;;;;4.57;2.20;;;6.80;99.90;;;;;;2096563;28;20025;-82
2021/01/19 05:19:52;;;;;;;9.40;3.50;;;6.80;99.90;;;;;;2098693;28;20028;-81
2021/01/19 05:20:52;;;;;;;6.45;2.40;;;6.80;99.90;;;;;;2092905;28;20032;-84
2021/01/19 05:21:54;;;;;;;9.65;2.60;;;6.80;99.90;;;;;;2083609;28;20030;-84
2021/01/19 05:22:57;;;;;;;8.43;2.63;;;6.80;99.90;;;;;;2089949;28;20396;-83
2021/01/19 05:24:01;;;;;;;7.13;2.22;;;6.80;99.90;;;;;;2091409;28;20123;-83
2021/01/19 05:25:04;;;;;;;7.78;2.33;;;6.80;99.90;;;;;;2091377;28;20021;-81
2021/01/19 05:26:06;;;;;;;6.72;2.83;;;6.80;99.90;;;;;;2089682;28;20048;-83
2021/01/19 05:27:12;;;;;;;7.88;2.40;;;6.80;99.90;;;;;;2081742;28;20025;-83
2021/01/19 05:28:12;;;;;;;12.15;3.30;;;6.80;99.90;;;;;;2093074;28;20567;-84
2021/01/19 05:29:13;;;;;;;4.90;2.67;;;6.80;99.90;;;;;;2090147;28;20045;-81
2021/01/19 05:30:14;;;;;;;5.75;2.45;;;6.80;99.90;;;;;;2089272;28;20115;-82
2021/01/19 05:31:15;;;;;;;5.90;2.85;;;6.80;99.90;;;;;;2089499;28;20504;-80
2021/01/19 05:32:15;;;;;;;8.88;2.42;;;6.80;99.90;;;;;;2097630;28;20079;-82
2021/01/19 05:33:16;;;;;;;8.13;2.70;;;6.80;99.90;;;;;;2089478;28;20017;-85
2021/01/19 05:34:17;;;;;;;8.70;2.90;;;6.80;99.90;;;;;;2088110;28;20029;-83
2021/01/19 05:35:20;;;;;;;7.78;2.80;;;6.80;99.90;;;;;;2080978;28;20029;-81